Time;durP1;ratioP1;P1;durP2;ratioP2;P2;SDS_P1;SDS_P2;PMS_P1;PMS_P2;Temp;Humidity;BMP_temperature;BMP_pressure;BME280_temperature;BME280_humidity;BME280_pressure;Samples;Min_cycle;Max_cycle;Signal;HPM_P1;HPM_P2
2021/01/25 00:00:26;;;;;;;9.75;6.72;;;1.80;88.00;;;;;;2078217;28;20025;-82
2021/01/25 00:01:27;;;;;;;9.68;6.10;;;1.80;87.90;;;;;;2072887;28;20165;-82
2021/01/25 00:02:28;;;;;;;10.05;6.25;;;1.80;87.90;;;;;;2073595;28;20086;-81
2021/01/25 00:03:28;;;;;;;11.93;6.65;;;1.80;87.90;;;;;;2073557;28;20026;-82
2021/01/25 00:04:29;;;;;;;10.30;6.30;;;1.80;87.90;;;;;;2069346;28;20120;-81
2021/01/25 00:05:31;;;;;;;11.02;5.85;;;1.80;87.90;;;;;;2083979;28;20785;-82
2021/01/25 00:06:32;;;;;;;10.00;5.88;;;1.80;87.90;;;;;;2088733;28;20037;-82
2021/01/25 00:07:33;;;;;;;8.70;5.60;;;1.80;87.90;;;;;;2085831;28;20046;-81
2021/01/25 00:08:34;;;;;;;9.68;5.32;;;1.80;87.90;;;;;;2075984;28;20057;-81
2021/01/25 00:09:35;;;;;;;9.02;5.32;;;1.90;88.00;;;;;;2090290;28;20100;-82
2021/01/25 00:10:35;;;;;;;10.23;6.25;;;1.90;88.00;;;;;;2091408;28;20013;-80
2021/01/25 00:11:36;;;;;;;10.07;6.13;;;1.90;87.90;;;;;;2098733;28;20013;-82
2021/01/25 00:12:36;;;;;;;11.50;6.18;;;1.90;87.90;;;;;;2113637;28;20028;-81
2021/01/25 00:13:37;;;;;;;10.55;6.22;;;1.90;87.90;;;;;;2098557;28;20544;-81
2021/01/25 00:14:37;;;;;;;9.88;6.07;;;1.90;87.90;;;;;;2094407;28;20026;-82
2021/01/25 00:15:38;;;;;;;10.25;6.03;;;1.90;87.90;;;;;;2089243;28;20096;-81
2021/01/25 00:16:39;;;;;;;9.82;6.47;;;1.80;87.90;;;;;;2082146;28;20372;-81
2021/01/25 00:17:39;;;;;;;9.25;5.85;;;1.90;87.90;;;;;;2083761;28;20558;-81
2021/01/25 00:18:40;;;;;;;10.48;6.25;;;1.80;87.80;;;;;;2075953;28;20026;-81
2021/01/25 00:19:41;;;;;;;9.20;5.93;;;1.90;87.90;;;;;;2086379;28;20097;-81
2021/01/25 00:20:41;;;;;;;9.75;5.95;;;1.90;87.90;;;;;;2081446;28;20518;-82
2021/01/25 00:21:44;;;;;;;8.73;5.45;;;1.90;87.80;;;;;;2092267;28;20047;-81
2021/01/25 00:22:45;;;;;;;11.55;6.47;;;1.90;88.40;;;;;;2089318;28;20040;-81
2021/01/25 00:23:46;;;;;;;10.80;6.20;;;1.80;87.80;;;;;;2081236;28;20022;-81
2021/01/25 00:24:47;;;;;;;9.30;5.93;;;1.80;87.80;;;;;;2100074;28;22283;-81
2021/01/25 00:25:47;;;;;;;11.35;6.43;;;1.80;87.80;;;;;;2090240;28;20404;-81
2021/01/25 00:26:48;;;;;;;11.68;6.63;;;1.90;87.80;;;;;;2078764;28;20128;-81
2021/01/25 00:27:49;;;;;;;10.45;6.30;;;1.80;88.30;;;;;;2081171;28;20458;-81
2021/01/25 00:28:49;;;;;;;11.73;6.60;;;1.80;87.70;;;;;;2080516;28;20466;-81
2021/01/25 00:29:50;;;;;;;10.00;6.10;;;1.80;87.80;;;;;;2080718;28;20452;-81
2021/01/25 00:30:50;;;;;;;10.43;6.65;;;1.80;87.80;;;;;;2080786;28;20373;-81
2021/01/25 00:31:52;;;;;;;9.98;6.10;;;1.80;87.80;;;;;;2072016;28;20369;-82
2021/01/25 00:32:53;;;;;;;11.23;6.97;;;1.80;87.80;;;;;;2070188;28;20037;-81
2021/01/25 00:33:54;;;;;;;9.77;6.22;;;1.80;87.80;;;;;;2089238;28;20031;-81
2021/01/25 00:34:54;;;;;;;11.18;6.43;;;1.80;87.80;;;;;;2079423;28;20676;-81
2021/01/25 00:35:55;;;;;;;11.07;7.05;;;1.80;87.80;;;;;;2080148;28;20078;-81
2021/01/25 00:36:56;;;;;;;10.82;6.15;;;1.80;87.80;;;;;;2083234;28;20085;-81
2021/01/25 00:37:56;;;;;;;10.27;6.18;;;1.80;87.80;;;;;;2086857;28;20487;-81
2021/01/25 00:38:57;;;;;;;11.32;6.57;;;1.80;87.80;;;;;;2084578;28;20175;-81
2021/01/25 00:39:57;;;;;;;10.15;5.93;;;1.80;87.70;;;;;;2095094;28;20080;-81
2021/01/25 00:40:58;;;;;;;10.98;6.85;;;1.80;87.70;;;;;;2091450;28;20060;-81
2021/01/25 00:41:59;;;;;;;11.48;6.70;;;1.80;87.70;;;;;;2088400;28;20033;-82
2021/01/25 00:42:59;;;;;;;9.82;6.03;;;1.80;87.60;;;;;;2075518;28;20084;-82
2021/01/25 00:44:00;;;;;;;9.35;6.18;;;1.80;87.60;;;;;;2074110;28;20400;-81
2021/01/25 00:45:01;;;;;;;9.93;6.50;;;1.80;87.60;;;;;;2086112;28;20089;-81
2021/01/25 00:46:02;;;;;;;10.82;6.90;;;1.80;87.60;;;;;;2110774;28;20086;-81
2021/01/25 00:47:02;;;;;;;12.00;7.53;;;1.80;87.50;;;;;;2105691;28;20051;-81
2021/01/25 00:48:03;;;;;;;11.32;7.03;;;1.80;87.50;;;;;;2080824;28;20017;-81
2021/01/25 00:49:04;;;;;;;9.82;6.85;;;1.80;87.50;;;;;;2097157;28;20032;-81
2021/01/25 00:50:05;;;;;;;10.90;6.75;;;1.80;87.50;;;;;;2105032;28;20100;-81
2021/01/25 00:51:06;;;;;;;12.13;7.03;;;1.80;87.50;;;;;;2079608;28;20442;-81
2021/01/25 00:52:07;;;;;;;11.73;7.35;;;1.80;88.20;;;;;;2074168;28;20033;-81
2021/01/25 00:53:08;;;;;;;10.32;6.60;;;1.80;87.60;;;;;;2078206;28;20391;-81
2021/01/25 00:54:08;;;;;;;10.45;6.70;;;1.80;87.60;;;;;;2085532;28;20029;-81
2021/01/25 00:55:11;;;;;;;12.40;7.25;;;1.80;87.60;;;;;;2079685;28;20484;-81
2021/01/25 00:56:12;;;;;;;11.00;6.70;;;1.80;87.60;;;;;;2088882;28;20036;-81
2021/01/25 00:57:12;;;;;;;10.15;6.65;;;1.80;87.60;;;;;;2086939;28;20032;-81
2021/01/25 00:58:13;;;;;;;12.55;6.93;;;1.80;87.60;;;;;;2086913;28;20029;-81
2021/01/25 00:59:13;;;;;;;12.00;6.93;;;1.80;87.70;;;;;;2081367;28;20515;-81
2021/01/25 01:00:15;;;;;;;11.43;7.07;;;1.80;87.70;;;;;;2086563;28;20522;-81
2021/01/25 01:01:15;;;;;;;12.27;6.95;;;1.80;87.70;;;;;;2089055;28;20037;-81
2021/01/25 01:02:16;;;;;;;13.80;7.53;;;1.80;87.60;;;;;;2085888;28;20041;-81
2021/01/25 01:03:17;;;;;;;12.98;7.03;;;1.70;88.20;;;;;;2082279;28;20459;-82
2021/01/25 01:04:17;;;;;;;11.73;7.45;;;1.70;87.60;;;;;;2087118;28;20561;-81
2021/01/25 01:05:18;;;;;;;11.00;6.75;;;1.70;87.60;;;;;;2088578;28;20044;-81
2021/01/25 01:06:18;;;;;;;13.18;7.82;;;1.70;87.70;;;;;;2080538;28;20450;-81
2021/01/25 01:07:19;;;;;;;11.90;7.43;;;1.70;87.70;;;;;;2086530;28;20123;-81
2021/01/25 01:08:20;;;;;;;11.38;7.05;;;1.70;87.70;;;;;;2083049;28;20530;-81
2021/01/25 01:09:21;;;;;;;10.75;7.20;;;1.70;87.70;;;;;;2088846;28;20642;-81
2021/01/25 01:10:22;;;;;;;11.30;7.38;;;1.70;87.70;;;;;;2094326;28;20045;-81
2021/01/25 01:11:23;;;;;;;11.52;7.18;;;1.70;87.80;;;;;;2089611;28;20025;-81
2021/01/25 01:12:24;;;;;;;11.20;6.95;;;1.70;87.70;;;;;;2080909;28;20060;-81
2021/01/25 01:13:24;;;;;;;9.85;6.65;;;1.70;87.80;;;;;;2086733;28;20035;-81
2021/01/25 01:14:25;;;;;;;11.35;6.95;;;1.80;87.80;;;;;;2076267;28;20034;-81
2021/01/25 01:15:26;;;;;;;11.98;7.15;;;1.80;87.80;;;;;;2066519;28;20411;-81
2021/01/25 01:16:27;;;;;;;12.48;7.88;;;1.70;87.80;;;;;;2074461;28;20377;-82
2021/01/25 01:17:28;;;;;;;11.70;7.40;;;1.70;87.70;;;;;;2081449;28;20029;-81
2021/01/25 01:18:28;;;;;;;11.90;7.55;;;1.80;88.40;;;;;;2084217;28;20457;-81
2021/01/25 01:19:29;;;;;;;10.48;7.25;;;1.70;87.70;;;;;;2076786;28;20109;-81
2021/01/25 01:20:30;;;;;;;13.57;7.72;;;1.70;87.80;;;;;;2074450;28;20034;-81
2021/01/25 01:21:30;;;;;;;11.20;7.38;;;1.80;87.80;;;;;;2098034;28;20568;-81
2021/01/25 01:22:31;;;;;;;12.55;8.00;;;1.80;87.80;;;;;;2089275;28;20047;-81
2021/01/25 01:23:31;;;;;;;12.60;7.85;;;1.70;87.70;;;;;;2090000;28;20536;-81
2021/01/25 01:24:32;;;;;;;15.70;8.88;;;1.70;87.70;;;;;;2084157;28;20029;-81
2021/01/25 01:25:33;;;;;;;12.68;8.27;;;1.70;87.70;;;;;;2088363;28;20021;-83
2021/01/25 01:26:34;;;;;;;12.85;8.57;;;1.70;87.70;;;;;;2065408;28;20034;-82
2021/01/25 01:27:35;;;;;;;11.73;8.32;;;1.70;87.70;;;;;;2068301;28;20022;-82
2021/01/25 01:28:35;;;;;;;13.98;8.40;;;1.70;87.80;;;;;;2064880;28;20488;-81
2021/01/25 01:29:36;;;;;;;13.45;8.60;;;1.70;87.80;;;;;;2072235;28;20026;-81
2021/01/25 01:30:37;;;;;;;12.82;8.00;;;1.70;87.80;;;;;;2083623;28;20111;-81
2021/01/25 01:31:37;;;;;;;13.13;9.10;;;1.60;87.80;;;;;;2080455;28;20042;-82
2021/01/25 01:32:38;;;;;;;13.75;8.27;;;1.70;87.90;;;;;;2073596;28;20022;-82
2021/01/25 01:33:38;;;;;;;14.75;9.13;;;1.60;87.90;;;;;;2066305;28;20049;-82
2021/01/25 01:34:39;;;;;;;12.23;8.48;;;1.70;88.00;;;;;;2083557;28;20061;-82
2021/01/25 01:35:40;;;;;;;12.93;8.52;;;1.60;87.90;;;;;;2080372;28;20535;-82
2021/01/25 01:36:40;;;;;;;13.35;9.15;;;1.60;87.90;;;;;;2062235;28;20539;-81
2021/01/25 01:37:41;;;;;;;14.10;9.13;;;1.60;88.00;;;;;;2073552;28;20116;-82
2021/01/25 01:38:42;;;;;;;18.35;9.35;;;1.60;88.00;;;;;;2076435;28;20499;-82
2021/01/25 01:39:42;;;;;;;13.50;9.10;;;1.60;88.00;;;;;;2081390;28;20128;-83
2021/01/25 01:40:43;;;;;;;14.15;8.77;;;1.70;88.30;;;;;;2090780;28;20556;-82
2021/01/25 01:41:44;;;;;;;13.73;8.93;;;1.60;88.00;;;;;;2082160;28;20108;-82
2021/01/25 01:42:44;;;;;;;12.60;8.45;;;1.60;88.00;;;;;;2077190;28;20038;-82
2021/01/25 01:43:45;;;;;;;13.70;8.75;;;1.60;88.00;;;;;;2081371;28;20044;-82
2021/01/25 01:44:46;;;;;;;13.93;8.85;;;1.60;88.00;;;;;;2080983;28;20029;-82
2021/01/25 01:45:46;;;;;;;15.05;9.15;;;1.60;88.00;;;;;;2072758;28;20045;-82
2021/01/25 01:46:47;;;;;;;14.32;8.52;;;1.60;88.10;;;;;;2081842;28;20128;-82
2021/01/25 01:47:48;;;;;;;11.70;8.10;;;1.60;88.10;;;;;;2089590;28;20024;-82
2021/01/25 01:48:49;;;;;;;12.40;8.32;;;1.60;88.10;;;;;;2082765;28;20038;-81
2021/01/25 01:49:50;;;;;;;13.10;8.52;;;1.60;88.10;;;;;;2090505;28;20029;-82
2021/01/25 01:50:51;;;;;;;12.45;8.55;;;1.60;88.10;;;;;;2097586;28;20036;-82
2021/01/25 01:51:52;;;;;;;13.32;8.98;;;1.60;88.20;;;;;;2092145;28;20115;-82
2021/01/25 01:52:53;;;;;;;12.95;8.23;;;1.60;88.20;;;;;;2093603;28;20036;-82
2021/01/25 01:53:54;;;;;;;12.73;8.52;;;1.60;88.20;;;;;;2073245;28;20022;-82
2021/01/25 01:54:59;;;;;;;14.82;8.90;;;1.60;88.20;;;;;;2077337;28;20133;-82
2021/01/25 01:56:00;;;;;;;12.38;8.80;;;1.60;88.20;;;;;;2097070;28;20013;-81
2021/01/25 01:57:01;;;;;;;11.75;8.27;;;1.60;88.20;;;;;;2097813;28;20478;-81
2021/01/25 01:58:03;;;;;;;12.30;8.23;;;1.60;88.20;;;;;;2084982;28;20024;-82
2021/01/25 01:59:04;;;;;;;11.73;8.13;;;1.60;88.20;;;;;;2088047;28;20059;-81
2021/01/25 02:00:06;;;;;;;11.32;7.75;;;1.60;88.20;;;;;;2073731;28;20018;-82
2021/01/25 02:01:06;;;;;;;11.35;7.85;;;1.60;88.20;;;;;;2083669;28;20061;-82
2021/01/25 02:02:07;;;;;;;12.30;8.40;;;1.60;88.20;;;;;;2077921;28;20036;-82
2021/01/25 02:03:08;;;;;;;14.13;8.80;;;1.70;88.30;;;;;;2080414;28;20549;-81
2021/01/25 02:04:10;;;;;;;11.93;8.32;;;1.70;88.20;;;;;;2094251;28;20123;-81
2021/01/25 02:05:12;;;;;;;12.70;8.65;;;1.60;88.20;;;;;;2088531;28;20044;-81
2021/01/25 02:06:13;;;;;;;14.02;7.95;;;1.70;88.20;;;;;;2081509;28;20100;-82
2021/01/25 02:07:15;;;;;;;12.23;8.40;;;1.70;88.30;;;;;;2089289;28;20025;-82
2021/01/25 02:08:17;;;;;;;13.32;7.93;;;1.70;88.30;;;;;;2080349;28;20041;-82
2021/01/25 02:09:18;;;;;;;12.98;8.45;;;1.70;88.20;;;;;;2079454;28;20083;-82
2021/01/25 02:10:21;;;;;;;14.45;8.63;;;1.70;88.20;;;;;;2073917;28;20504;-81
2021/01/25 02:11:22;;;;;;;13.88;8.50;;;1.70;88.20;;;;;;2090873;28;20137;-81
2021/01/25 02:12:22;;;;;;;13.50;8.73;;;1.70;88.20;;;;;;2088806;28;20028;-81
2021/01/25 02:13:24;;;;;;;14.38;8.45;;;1.70;88.20;;;;;;2079604;28;20030;-82
2021/01/25 02:14:26;;;;;;;14.32;9.27;;;1.70;88.20;;;;;;2072476;28;20110;-82
2021/01/25 02:15:28;;;;;;;14.82;9.13;;;1.70;88.20;;;;;;2073719;28;20026;-81
2021/01/25 02:16:29;;;;;;;15.15;9.82;;;1.70;88.20;;;;;;2089473;28;20029;-82
2021/01/25 02:17:30;;;;;;;13.88;8.27;;;1.70;88.20;;;;;;2096579;28;20440;-82
2021/01/25 02:18:34;;;;;;;17.23;9.93;;;1.70;88.20;;;;;;2082940;28;20022;-82
2021/01/25 02:19:51;;;;;;;14.02;8.85;;;1.60;88.20;;;;;;2088847;28;20036;-82
2021/01/25 02:20:52;;;;;;;12.70;8.77;;;1.70;88.30;;;;;;2087070;28;20498;-81
2021/01/25 02:22:11;;;;;;;13.85;9.10;;;1.70;88.30;;;;;;2080983;28;20037;-82
2021/01/25 02:23:23;;;;;;;16.00;9.50;;;1.60;88.20;;;;;;2082076;28;20025;-81
2021/01/25 02:24:35;;;;;;;14.00;9.45;;;1.60;88.20;;;;;;2088953;28;20017;-82
2021/01/25 02:25:49;;;;;;;14.18;9.63;;;1.60;88.20;;;;;;2087976;28;20112;-81
2021/01/25 02:27:20;;;;;;;11.77;8.13;;;1.60;88.20;;;;;;2088760;28;20025;-81
2021/01/25 02:28:21;;;;;;;13.07;8.32;;;1.60;88.20;;;;;;2095616;28;20492;-82
2021/01/25 02:29:22;;;;;;;13.25;8.13;;;1.60;88.20;;;;;;2081931;28;20030;-82
2021/01/25 02:30:22;;;;;;;11.45;7.72;;;1.60;88.20;;;;;;2086051;28;20121;-82
2021/01/25 02:31:23;;;;;;;12.48;7.90;;;1.60;88.30;;;;;;2097442;28;20086;-82
2021/01/25 02:32:26;;;;;;;14.27;8.75;;;1.60;88.30;;;;;;2088122;28;20099;-81
2021/01/25 02:33:28;;;;;;;17.23;9.95;;;1.60;88.40;;;;;;2082023;28;20439;-81
2021/01/25 02:34:30;;;;;;;14.73;8.45;;;1.60;88.40;;;;;;2084024;28;20044;-82
2021/01/25 02:35:31;;;;;;;13.13;8.80;;;1.60;88.30;;;;;;2097930;28;20115;-82
2021/01/25 02:36:34;;;;;;;16.25;9.75;;;1.60;88.30;;;;;;2093108;28;20419;-82
2021/01/25 02:37:36;;;;;;;12.88;9.20;;;1.70;88.40;;;;;;2081523;28;20068;-82
2021/01/25 02:38:41;;;;;;;13.30;8.70;;;1.60;88.30;;;;;;2081732;28;20036;-82
2021/01/25 02:39:42;;;;;;;15.05;8.48;;;1.60;88.30;;;;;;2085288;28;20013;-82
2021/01/25 02:40:47;;;;;;;14.80;8.98;;;1.70;88.40;;;;;;2085208;28;20041;-82
2021/01/25 02:41:47;;;;;;;13.85;8.77;;;1.60;88.40;;;;;;2082816;28;20037;-82
2021/01/25 02:42:50;;;;;;;14.70;9.05;;;1.60;88.40;;;;;;2078865;28;20030;-82
2021/01/25 02:43:52;;;;;;;14.70;9.90;;;1.60;88.40;;;;;;2080688;28;20507;-82
2021/01/25 02:44:54;;;;;;;14.10;9.20;;;1.60;89.00;;;;;;2080003;28;20029;-81
2021/01/25 02:45:55;;;;;;;13.63;9.27;;;1.60;88.50;;;;;;2081116;28;20037;-82
2021/01/25 02:46:58;;;;;;;12.40;8.50;;;1.60;88.50;;;;;;2084915;28;20028;-81
2021/01/25 02:47:59;;;;;;;14.48;8.75;;;1.60;88.50;;;;;;2088018;28;20025;-82
2021/01/25 02:49:00;;;;;;;13.68;8.48;;;1.60;88.50;;;;;;2080115;28;20045;-81
2021/01/25 02:50:01;;;;;;;12.43;8.30;;;1.60;88.50;;;;;;2077611;28;20545;-82
2021/01/25 02:51:03;;;;;;;13.93;8.45;;;1.60;88.50;;;;;;2079045;28;20029;-82
2021/01/25 02:52:05;;;;;;;14.90;8.98;;;1.70;88.60;;;;;;2087391;28;20025;-81
2021/01/25 02:53:06;;;;;;;13.85;9.07;;;1.60;88.50;;;;;;2081981;28;20104;-81
2021/01/25 02:54:07;;;;;;;12.65;7.43;;;1.70;88.60;;;;;;2091094;28;20666;-81
2021/01/25 02:55:08;;;;;;;13.30;8.40;;;1.70;88.60;;;;;;2096048;28;20122;-82
2021/01/25 02:56:10;;;;;;;13.55;8.18;;;1.70;88.60;;;;;;2084558;28;20090;-82
2021/01/25 02:57:15;;;;;;;11.02;6.93;;;1.70;88.50;;;;;;2076186;28;20031;-82
2021/01/25 02:58:16;;;;;;;12.40;7.70;;;1.70;89.10;;;;;;2072090;28;20654;-81
2021/01/25 02:59:17;;;;;;;11.68;7.90;;;1.70;88.90;;;;;;2077571;28;20018;-82
2021/01/25 03:00:18;;;;;;;13.95;8.43;;;1.70;88.40;;;;;;2080297;28;20103;-82
2021/01/25 03:01:19;;;;;;;13.30;8.40;;;1.70;88.40;;;;;;2073126;28;20056;-82
2021/01/25 03:02:20;;;;;;;12.25;7.65;;;1.70;88.40;;;;;;2078318;28;20038;-81
2021/01/25 03:03:23;;;;;;;11.40;7.53;;;1.70;88.40;;;;;;2073016;28;20034;-82
2021/01/25 03:04:25;;;;;;;12.52;7.60;;;1.70;88.40;;;;;;2078172;28;20022;-81
2021/01/25 03:05:29;;;;;;;12.73;7.72;;;1.70;88.40;;;;;;2085597;28;20029;-81
2021/01/25 03:06:29;;;;;;;12.27;7.25;;;1.70;88.30;;;;;;2096651;28;20034;-82
2021/01/25 03:07:30;;;;;;;11.48;6.93;;;1.70;88.40;;;;;;2086821;28;20036;-81
2021/01/25 03:08:31;;;;;;;14.30;8.27;;;1.70;88.40;;;;;;2082582;28;20418;-81
2021/01/25 03:09:32;;;;;;;12.07;8.07;;;1.70;88.40;;;;;;2094957;28;20033;-82
2021/01/25 03:10:33;;;;;;;13.15;7.80;;;1.70;88.40;;;;;;2088999;28;20025;-82
2021/01/25 03:11:34;;;;;;;11.40;7.68;;;1.70;88.40;;;;;;2085901;28;20116;-81
2021/01/25 03:12:35;;;;;;;12.35;7.82;;;1.70;88.50;;;;;;2085579;28;20017;-82
2021/01/25 03:13:35;;;;;;;12.13;7.72;;;1.70;88.50;;;;;;2090230;28;20482;-82
2021/01/25 03:14:45;;;;;;;12.35;7.55;;;1.70;89.10;;;;;;2095955;28;20119;-82
2021/01/25 03:15:46;;;;;;;12.40;7.75;;;1.70;88.60;;;;;;2091532;28;20056;-81
2021/01/25 03:16:46;;;;;;;12.23;7.75;;;1.60;88.60;;;;;;2080504;28;20083;-81
2021/01/25 03:17:47;;;;;;;12.25;7.68;;;1.70;88.60;;;;;;2069086;28;20379;-81
2021/01/25 03:18:48;;;;;;;10.77;7.20;;;1.70;88.60;;;;;;2079901;28;20430;-82
2021/01/25 03:19:48;;;;;;;11.02;7.28;;;1.70;88.60;;;;;;2082081;28;20120;-82
2021/01/25 03:20:50;;;;;;;14.32;7.82;;;1.60;88.60;;;;;;2080745;28;20037;-82
2021/01/25 03:21:53;;;;;;;12.45;8.10;;;1.60;88.60;;;;;;2072642;28;20034;-81
2021/01/25 03:22:54;;;;;;;13.13;7.93;;;1.60;88.70;;;;;;2082531;28;20051;-81
2021/01/25 03:23:55;;;;;;;12.55;7.50;;;1.60;88.70;;;;;;2080165;28;20079;-81
2021/01/25 03:24:55;;;;;;;11.80;7.57;;;1.60;88.80;;;;;;2087877;28;20495;-81
2021/01/25 03:25:56;;;;;;;10.98;8.23;;;1.50;88.80;;;;;;2075417;28;20049;-81
2021/01/25 03:26:56;;;;;;;12.52;8.05;;;1.50;88.80;;;;;;2060826;28;20030;-82
2021/01/25 03:27:57;;;;;;;12.48;8.00;;;1.50;88.80;;;;;;2072401;28;20377;-81
2021/01/25 03:28:58;;;;;;;11.98;8.15;;;1.40;88.90;;;;;;2068581;28;20029;-82
2021/01/25 03:29:58;;;;;;;12.52;7.72;;;1.50;89.00;;;;;;2080297;28;20031;-82
2021/01/25 03:30:59;;;;;;;12.40;7.65;;;1.50;89.10;;;;;;2093967;28;20024;-81
2021/01/25 03:32:00;;;;;;;11.52;7.55;;;1.40;89.10;;;;;;2088403;28;20040;-81
2021/01/25 03:33:01;;;;;;;12.90;7.75;;;1.40;89.10;;;;;;2078805;28;20021;-81
2021/01/25 03:34:03;;;;;;;12.43;7.60;;;1.40;89.10;;;;;;2085782;28;20024;-81
2021/01/25 03:35:10;;;;;;;12.60;7.80;;;1.40;89.10;;;;;;2087191;28;20056;-81
2021/01/25 03:36:11;;;;;;;13.55;7.57;;;1.40;89.10;;;;;;2096286;28;20024;-81
2021/01/25 03:37:12;;;;;;;11.93;7.93;;;1.40;89.20;;;;;;2088861;28;20124;-81
2021/01/25 03:38:13;;;;;;;13.63;8.60;;;1.40;89.80;;;;;;2092579;28;20029;-81
2021/01/25 03:39:13;;;;;;;13.55;8.45;;;1.40;89.20;;;;;;2081683;28;20025;-81
2021/01/25 03:40:14;;;;;;;12.60;8.13;;;1.30;89.20;;;;;;2072156;28;20482;-82
2021/01/25 03:41:15;;;;;;;12.18;8.02;;;1.30;89.30;;;;;;2080653;28;20029;-81
2021/01/25 03:42:15;;;;;;;12.07;8.38;;;1.30;89.90;;;;;;2078572;28;20100;-81
2021/01/25 03:43:16;;;;;;;12.35;7.82;;;1.30;89.40;;;;;;2077523;28;20043;-81
2021/01/25 03:44:16;;;;;;;11.85;7.60;;;1.30;89.40;;;;;;2074655;28;20022;-81
2021/01/25 03:45:18;;;;;;;12.60;8.57;;;1.30;89.40;;;;;;2088957;28;20053;-81
2021/01/25 03:46:19;;;;;;;13.20;7.97;;;1.30;89.40;;;;;;2084063;28;20067;-81
2021/01/25 03:47:19;;;;;;;14.63;9.23;;;1.30;89.40;;;;;;2079684;28;20119;-81
2021/01/25 03:48:21;;;;;;;13.48;8.25;;;1.20;89.40;;;;;;2086603;28;20036;-81
2021/01/25 03:49:22;;;;;;;14.88;8.43;;;1.20;89.40;;;;;;2087591;28;20036;-81
2021/01/25 03:50:22;;;;;;;14.52;8.73;;;1.20;89.50;;;;;;2072213;28;20038;-81
2021/01/25 03:51:23;;;;;;;12.57;7.82;;;1.20;89.40;;;;;;2071433;28;20116;-81
2021/01/25 03:52:24;;;;;;;12.63;8.48;;;1.20;89.50;;;;;;2075256;28;20030;-81
2021/01/25 03:53:25;;;;;;;12.63;8.57;;;1.20;89.50;;;;;;2084839;28;20037;-81
2021/01/25 03:54:26;;;;;;;13.15;8.75;;;1.20;89.50;;;;;;2086401;28;20116;-81
2021/01/25 03:55:26;;;;;;;13.70;8.90;;;1.20;89.60;;;;;;2085874;28;20029;-81
2021/01/25 03:56:27;;;;;;;13.27;8.48;;;1.20;89.60;;;;;;2083906;28;20118;-81
2021/01/25 03:57:27;;;;;;;13.60;8.65;;;1.20;89.60;;;;;;2072272;28;20049;-81
2021/01/25 03:58:28;;;;;;;13.13;8.40;;;1.10;89.60;;;;;;2062549;28;20023;-81
2021/01/25 03:59:30;;;;;;;14.13;8.73;;;1.10;89.70;;;;;;2067685;28;20037;-81
2021/01/25 04:00:30;;;;;;;12.13;8.52;;;1.10;89.70;;;;;;2084976;28;20108;-81
2021/01/25 04:01:32;;;;;;;12.60;8.75;;;1.10;89.70;;;;;;2088062;28;20020;-82
2021/01/25 04:02:32;;;;;;;13.18;8.82;;;1.10;89.70;;;;;;2071906;28;20575;-81
2021/01/25 04:03:33;;;;;;;12.13;8.02;;;1.10;89.70;;;;;;2079043;28;20030;-81
2021/01/25 04:04:34;;;;;;;12.85;8.07;;;1.10;89.70;;;;;;2087938;28;20056;-81
2021/01/25 04:05:34;;;;;;;15.55;9.13;;;1.10;90.10;;;;;;2080562;28;20029;-81
2021/01/25 04:06:35;;;;;;;13.27;8.60;;;1.10;89.80;;;;;;2085212;28;20025;-81
2021/01/25 04:07:36;;;;;;;13.88;8.50;;;1.10;89.80;;;;;;2083916;28;20032;-81
2021/01/25 04:08:37;;;;;;;12.38;8.18;;;1.10;89.80;;;;;;2085397;28;20033;-81
2021/01/25 04:09:39;;;;;;;12.88;8.45;;;1.10;89.80;;;;;;2087291;28;20590;-81
2021/01/25 04:10:40;;;;;;;11.48;7.93;;;1.10;89.90;;;;;;2078711;28;20024;-80
2021/01/25 04:11:42;;;;;;;13.70;8.57;;;1.10;89.90;;;;;;2088300;28;20492;-81
2021/01/25 04:12:43;;;;;;;12.35;7.85;;;1.10;89.90;;;;;;2084252;28;20453;-81
2021/01/25 04:13:44;;;;;;;14.05;8.85;;;1.10;89.90;;;;;;2071912;28;20049;-81
2021/01/25 04:14:45;;;;;;;13.10;9.05;;;1.10;89.90;;;;;;2080488;28;20021;-81
2021/01/25 04:15:45;;;;;;;13.00;8.38;;;1.00;89.90;;;;;;2092519;28;20115;-81
2021/01/25 04:16:46;;;;;;;13.82;9.02;;;1.00;89.90;;;;;;2096162;28;20028;-81
2021/01/25 04:17:47;;;;;;;13.32;8.70;;;1.00;89.90;;;;;;2080308;28;20487;-81
2021/01/25 04:18:48;;;;;;;12.88;8.43;;;1.00;90.00;;;;;;2082964;28;20030;-81
2021/01/25 04:19:48;;;;;;;12.50;8.40;;;1.10;90.00;;;;;;2099477;28;20020;-81
2021/01/25 04:20:49;;;;;;;12.15;7.82;;;1.10;90.00;;;;;;2088435;28;20490;-82
2021/01/25 04:21:49;;;;;;;13.25;8.57;;;1.00;90.00;;;;;;2072220;28;20030;-81
2021/01/25 04:22:50;;;;;;;12.50;8.43;;;1.00;90.00;;;;;;2075401;28;20072;-81
2021/01/25 04:23:51;;;;;;;13.50;8.80;;;1.00;90.00;;;;;;2082719;28;20037;-81
2021/01/25 04:24:51;;;;;;;13.55;7.95;;;1.00;90.10;;;;;;2082476;28;20058;-81
2021/01/25 04:25:52;;;;;;;11.57;7.55;;;1.00;90.00;;;;;;2081331;28;20116;-81
2021/01/25 04:26:53;;;;;;;11.13;7.57;;;1.00;90.00;;;;;;2083986;28;20119;-81
2021/01/25 04:27:53;;;;;;;13.27;8.30;;;1.00;90.00;;;;;;2080631;28;20073;-81
2021/01/25 04:28:54;;;;;;;12.20;7.90;;;1.00;90.00;;;;;;2079499;28;20026;-81
2021/01/25 04:29:54;;;;;;;11.07;7.70;;;1.00;90.00;;;;;;2074270;28;20030;-81
2021/01/25 04:30:55;;;;;;;12.10;8.18;;;0.90;90.00;;;;;;2081809;28;20078;-81
2021/01/25 04:31:56;;;;;;;11.38;7.93;;;0.90;90.00;;;;;;2085841;28;20029;-81
2021/01/25 04:32:56;;;;;;;14.60;8.88;;;0.90;90.10;;;;;;2087805;28;20104;-81
2021/01/25 04:33:57;;;;;;;14.07;8.85;;;0.90;90.10;;;;;;2086867;28;20478;-81
2021/01/25 04:34:57;;;;;;;13.65;8.95;;;0.80;90.10;;;;;;2082864;28;20083;-80
2021/01/25 04:35:58;;;;;;;12.05;8.30;;;0.80;90.10;;;;;;2092075;28;20025;-80
2021/01/25 04:36:59;;;;;;;13.13;8.55;;;0.80;90.10;;;;;;2096626;28;20438;-81
2021/01/25 04:37:59;;;;;;;12.13;8.20;;;0.80;90.20;;;;;;2106860;28;20028;-81
2021/01/25 04:39:00;;;;;;;13.23;8.82;;;0.80;90.20;;;;;;2107595;28;20032;-82
2021/01/25 04:40:02;;;;;;;11.25;7.32;;;0.80;90.20;;;;;;2100876;28;20017;-81
2021/01/25 04:41:04;;;;;;;11.63;7.82;;;0.80;90.20;;;;;;2097997;28;20025;-82
2021/01/25 04:42:05;;;;;;;12.52;8.45;;;0.80;90.20;;;;;;2085427;28;20464;-81
2021/01/25 04:43:07;;;;;;;12.55;8.82;;;0.80;90.20;;;;;;2089479;28;20055;-82
2021/01/25 04:44:10;;;;;;;13.75;9.18;;;0.80;90.20;;;;;;2096982;28;20494;-81
2021/01/25 04:45:11;;;;;;;11.68;8.13;;;0.80;90.20;;;;;;2090899;28;20060;-81
2021/01/25 04:46:13;;;;;;;12.68;7.90;;;0.80;90.20;;;;;;2102719;28;20028;-81
2021/01/25 04:47:14;;;;;;;11.50;7.75;;;0.80;90.20;;;;;;2099930;28;20105;-82
2021/01/25 04:48:16;;;;;;;13.55;8.70;;;0.80;90.20;;;;;;2091380;28;20115;-81
2021/01/25 04:49:18;;;;;;;13.20;8.15;;;0.80;90.20;;;;;;2099776;28;20082;-82
2021/01/25 04:50:18;;;;;;;11.73;7.75;;;0.80;90.20;;;;;;2103802;28;20032;-81
2021/01/25 04:51:23;;;;;;;12.45;8.05;;;0.80;90.20;;;;;;2088245;28;20021;-81
2021/01/25 04:52:25;;;;;;;12.13;7.88;;;0.80;90.20;;;;;;2083284;28;20026;-81
2021/01/25 04:53:26;;;;;;;11.75;7.90;;;0.80;90.20;;;;;;2083711;28;20076;-81
2021/01/25 04:54:28;;;;;;;11.65;8.20;;;0.80;90.50;;;;;;2082577;28;20033;-81
2021/01/25 04:55:29;;;;;;;10.88;7.50;;;0.80;90.20;;;;;;2090769;28;20064;-81
2021/01/25 04:56:31;;;;;;;12.50;7.93;;;0.80;90.20;;;;;;2081625;28;20171;-81
2021/01/25 04:57:33;;;;;;;12.93;8.15;;;0.80;90.20;;;;;;2062357;28;20054;-80
2021/01/25 04:58:35;;;;;;;13.52;8.32;;;0.80;90.30;;;;;;2071926;28;20100;-82
2021/01/25 04:59:36;;;;;;;11.57;7.60;;;0.80;90.30;;;;;;2080468;28;20029;-82
2021/01/25 05:00:37;;;;;;;11.25;7.60;;;0.80;90.30;;;;;;2086864;28;20025;-82
2021/01/25 05:01:37;;;;;;;12.85;8.13;;;0.80;90.30;;;;;;2088912;28;20066;-81
2021/01/25 05:02:41;;;;;;;13.07;8.50;;;0.80;90.20;;;;;;2088014;28;20033;-81
2021/01/25 05:03:41;;;;;;;12.85;8.55;;;0.70;90.20;;;;;;2090587;28;20040;-81
2021/01/25 05:04:42;;;;;;;13.00;8.77;;;0.70;90.20;;;;;;2092673;28;20024;-80
2021/01/25 05:05:43;;;;;;;11.93;8.32;;;0.80;90.20;;;;;;2083398;28;20052;-81
2021/01/25 05:06:43;;;;;;;16.55;9.20;;;0.70;90.20;;;;;;2088160;28;20462;-81
2021/01/25 05:07:44;;;;;;;11.93;8.50;;;0.70;90.20;;;;;;2096531;28;20055;-81
2021/01/25 05:08:45;;;;;;;13.27;8.65;;;0.60;90.20;;;;;;2089817;28;20144;-81
2021/01/25 05:09:46;;;;;;;11.05;7.75;;;0.60;90.20;;;;;;2083030;28;20025;-81
2021/01/25 05:10:47;;;;;;;13.13;8.68;;;0.60;90.30;;;;;;2078704;28;20024;-80
2021/01/25 05:12:03;;;;;;;13.73;8.63;;;0.60;90.30;;;;;;2091685;28;20075;-80
2021/01/25 05:13:03;;;;;;;11.50;7.80;;;0.60;90.30;;;;;;2091166;28;20372;-81
2021/01/25 05:14:07;;;;;;;13.45;9.23;;;0.60;90.30;;;;;;2085395;28;20033;-80
2021/01/25 05:15:09;;;;;;;12.38;8.55;;;0.60;90.30;;;;;;2082989;28;20498;-81
2021/01/25 05:16:20;;;;;;;13.52;8.77;;;0.60;90.30;;;;;;2082539;28;20112;-81
2021/01/25 05:17:25;;;;;;;12.65;8.25;;;0.60;90.30;;;;;;2092190;28;20062;-80
2021/01/25 05:18:26;;;;;;;12.00;8.43;;;0.60;90.30;;;;;;2082164;28;20044;-81
2021/01/25 05:19:26;;;;;;;13.27;8.68;;;0.60;90.30;;;;;;2080646;28;20030;-80
2021/01/25 05:20:28;;;;;;;11.43;8.10;;;0.60;90.30;;;;;;2091828;28;20502;-80